Time;durP1;ratioP1;P1;durP2;ratioP2;P2;SDS_P1;SDS_P2;PMS_P1;PMS_P2;Temp;Humidity;BMP_temperature;BMP_pressure;BME280_temperature;BME280_humidity;BME280_pressure;Samples;Min_cycle;Max_cycle;Signal;HPM_P1;HPM_P2
2023/01/18 00:00:40;;;;;;;;;;;14.40;73.00;;;;;;5094012;28;19913;-85
2023/01/18 00:03:10;;;;;;;;;;;14.40;73.10;;;;;;5094957;28;19975;-85
2023/01/18 00:05:39;;;;;;;;;;;14.30;73.00;;;;;;5094401;28;19995;-85
2023/01/18 00:08:07;;;;;;;;;;;14.30;73.00;;;;;;5094959;28;19908;-85
2023/01/18 00:10:33;;;;;;;;;;;14.30;73.00;;;;;;5093969;28;20155;-85
2023/01/18 00:12:59;;;;;;;;;;;14.30;73.10;;;;;;5094081;28;19938;-86
2023/01/18 00:15:25;;;;;;;;;;;14.30;73.00;;;;;;5093919;28;19969;-86
2023/01/18 00:17:53;;;;;;;;;;;14.30;72.90;;;;;;5093699;28;19976;-85
2023/01/18 00:20:23;;;;;;;;;;;14.20;72.90;;;;;;5092163;28;19909;-85
2023/01/18 00:22:48;;;;;;;;;;;14.20;72.90;;;;;;5092383;28;19912;-86
2023/01/18 00:25:14;;;;;;;;;;;14.20;72.90;;;;;;5093208;28;19919;-86
2023/01/18 00:27:46;;;;;;;;;;;14.20;72.90;;;;;;5093222;28;20093;-86
2023/01/18 00:30:12;;;;;;;;;;;14.20;72.80;;;;;;5093081;28;19996;-86
2023/01/18 00:32:37;;;;;;;;;;;14.20;72.80;;;;;;5093947;28;20003;-86
2023/01/18 00:35:06;;;;;;;;;;;14.20;72.80;;;;;;5094492;28;19908;-86
2023/01/18 00:37:37;;;;;;;;;;;14.10;72.70;;;;;;5094135;28;20181;-86
2023/01/18 00:40:04;;;;;;;;;;;14.10;72.60;;;;;;5094524;28;19916;-85
2023/01/18 00:45:13;;;;;;;;;;;14.10;72.50;;;;;;5096097;28;19919;-85
2023/01/18 00:47:39;;;;;;;;;;;14.10;72.50;;;;;;5094677;28;19908;-85
2023/01/18 00:50:05;;;;;;;;;;;14.10;72.40;;;;;;5094993;28;20297;-85
2023/01/18 00:52:32;;;;;;;;;;;14.10;72.40;;;;;;5094394;28;19916;-85
2023/01/18 00:54:58;;;;;;;;;;;14.10;72.40;;;;;;5094661;28;19997;-85
2023/01/18 00:57:23;;;;;;;;;;;14.10;72.40;;;;;;5093638;28;20255;-85
2023/01/18 00:59:49;;;;;;;;;;;14.10;72.20;;;;;;5093577;28;19916;-85
2023/01/18 01:02:15;;;;;;;;;;;14.10;72.20;;;;;;5093918;28;19955;-85
2023/01/18 01:07:25;;;;;;;;;;;14.00;72.10;;;;;;5096051;28;20005;-85
2023/01/18 01:09:55;;;;;;;;;;;14.00;72.10;;;;;;5095483;28;20256;-85
2023/01/18 01:26:08;;;;;;;;;;;13.90;71.70;;;;;;5095870;28;19922;-86
2023/01/18 01:28:34;;;;;;;;;;;13.90;71.70;;;;;;5096584;28;19940;-85
2023/01/18 01:31:00;;;;;;;;;;;13.90;71.70;;;;;;5093646;28;20034;-85
2023/01/18 01:33:27;;;;;;;;;;;13.90;71.60;;;;;;5093457;28;20002;-85
2023/01/18 01:35:56;;;;;;;;;;;13.90;71.60;;;;;;5094033;28;19916;-85
2023/01/18 01:38:22;;;;;;;;;;;13.90;71.50;;;;;;5094737;28;19969;-85
2023/01/18 01:41:05;;;;;;;;;;;13.80;71.50;;;;;;5094159;28;20015;-85
2023/01/18 01:43:35;;;;;;;;;;;13.80;71.50;;;;;;5094430;28;19912;-85
2023/01/18 01:46:02;;;;;;;;;;;13.80;71.50;;;;;;5093927;28;19933;-85
2023/01/18 01:48:28;;;;;;;;;;;13.80;71.40;;;;;;5095181;28;19908;-85
2023/01/18 01:50:53;;;;;;;;;;;13.80;71.40;;;;;;5095832;28;19920;-86
2023/01/18 01:55:50;;;;;;;;;;;13.70;71.40;;;;;;5093998;28;19935;-16
2023/01/18 01:58:18;;;;;;;;;;;13.70;71.40;;;;;;5096621;28;19919;-17
2023/01/18 02:00:44;;;;;;;;;;;13.70;71.40;;;;;;5095140;28;20315;-15
2023/01/18 02:03:11;;;;;;;;;;;13.70;71.40;;;;;;5095080;28;19912;-17
2023/01/18 02:06:00;;;;;;;;;;;13.70;71.40;;;;;;5096288;28;19908;-14
2023/01/18 02:08:26;;;;;;;;;;;13.70;71.30;;;;;;5086791;28;19908;-15
2023/01/18 02:10:52;;;;;;;;;;;13.60;71.30;;;;;;5095056;28;19908;-16
2023/01/18 02:13:19;;;;;;;;;;;13.60;71.30;;;;;;5077529;28;19958;-15
2023/01/18 02:16:03;;;;;;;;;;;13.60;71.30;;;;;;5093128;28;20300;-15
2023/01/18 02:18:44;;;;;;;;;;;13.60;71.30;;;;;;5080124;28;19974;-17
2023/01/18 02:21:17;;;;;;;;;;;13.60;71.10;;;;;;5097071;28;19923;-15
2023/01/18 02:23:55;;;;;;;;;;;13.60;71.10;;;;;;5112808;28;20014;-17
2023/01/18 02:26:42;;;;;;;;;;;13.50;71.10;;;;;;5096851;28;19908;-16
2023/01/18 02:29:22;;;;;;;;;;;13.50;71.10;;;;;;5080934;28;20368;-15
2023/01/18 02:31:54;;;;;;;;;;;13.50;71.10;;;;;;5098158;28;19908;-18
2023/01/18 02:34:31;;;;;;;;;;;13.50;71.10;;;;;;5096826;28;19909;-12
2023/01/18 02:37:06;;;;;;;;;;;13.50;71.10;;;;;;5088184;28;19919;-16
2023/01/18 02:39:38;;;;;;;;;;;13.50;71.00;;;;;;5093764;28;20363;-17
2023/01/18 02:47:41;;;;;;;;;;;13.40;71.10;;;;;;5091394;28;19919;-18
2023/01/18 02:50:08;;;;;;;;;;;13.40;71.00;;;;;;5090726;28;20513;-15
2023/01/18 02:52:38;;;;;;;;;;;13.40;71.00;;;;;;5074566;28;19908;-16
2023/01/18 02:55:06;;;;;;;;;;;13.40;71.00;;;;;;5108742;28;19920;-15
2023/01/18 02:57:32;;;;;;;;;;;13.40;71.10;;;;;;5110307;28;19998;-16
2023/01/18 02:59:59;;;;;;;;;;;13.30;71.00;;;;;;5094449;28;19939;-15
2023/01/18 03:02:27;;;;;;;;;;;13.30;71.00;;;;;;5094218;28;19912;-15
2023/01/18 03:04:56;;;;;;;;;;;13.30;71.10;;;;;;5093555;28;19919;-13
2023/01/18 03:07:31;;;;;;;;;;;13.30;71.10;;;;;;5093748;28;20323;-15
2023/01/18 03:09:59;;;;;;;;;;;13.30;71.20;;;;;;5112275;28;19908;-17
2023/01/18 03:12:44;;;;;;;;;;;13.20;71.10;;;;;;5096084;28;19938;-16
2023/01/18 03:15:28;;;;;;;;;;;13.20;71.20;;;;;;5079890;28;19935;-17
2023/01/18 03:17:56;;;;;;;;;;;13.20;71.20;;;;;;5078232;28;19916;-16
2023/01/18 03:20:24;;;;;;;;;;;13.20;71.20;;;;;;5096910;28;19908;-14
2023/01/18 03:25:42;;;;;;;;;;;13.20;71.20;;;;;;5096067;28;19984;-15
2023/01/18 03:33:44;;;;;;;;;;;13.10;71.30;;;;;;5095291;28;19988;-16
2023/01/18 03:36:19;;;;;;;;;;;13.00;71.50;;;;;;5111278;28;19919;-16
2023/01/18 03:38:46;;;;;;;;;;;13.00;71.70;;;;;;5094597;28;19908;-15
2023/01/18 03:41:12;;;;;;;;;;;12.90;71.80;;;;;;5095018;28;19931;-13
2023/01/18 03:43:42;;;;;;;;;;;12.90;71.80;;;;;;5094072;28;19916;-17
2023/01/18 03:46:08;;;;;;;;;;;12.90;72.00;;;;;;5093062;28;19912;-15
2023/01/18 03:48:35;;;;;;;;;;;12.80;72.00;;;;;;5093832;28;19917;-15
2023/01/18 03:51:16;;;;;;;;;;;12.80;72.10;;;;;;5094628;28;19909;-17
2023/01/18 03:54:05;;;;;;;;;;;12.80;72.20;;;;;;5094559;28;19908;-14
2023/01/18 03:56:41;;;;;;;;;;;12.70;72.30;;;;;;5063815;28;19916;-14
2023/01/18 03:59:06;;;;;;;;;;;12.70;72.60;;;;;;5094918;28;19919;-14
2023/01/18 04:01:32;;;;;;;;;;;12.70;72.90;;;;;;5076797;28;19916;-15
2023/01/18 04:03:58;;;;;;;;;;;12.80;72.70;;;;;;5076705;28;20215;-14
2023/01/18 04:06:24;;;;;;;;;;;12.90;72.20;;;;;;5095421;28;20349;-18
2023/01/18 04:08:50;;;;;;;;;;;13.00;71.60;;;;;;5096451;28;20196;-17
2023/01/18 04:11:16;;;;;;;;;;;13.10;71.10;;;;;;5095922;28;19908;-17
2023/01/18 04:13:44;;;;;;;;;;;13.20;70.40;;;;;;5094383;28;19973;-14
2023/01/18 04:16:10;;;;;;;;;;;13.30;69.60;;;;;;5095763;28;19908;-17
2023/01/18 04:18:35;;;;;;;;;;;13.40;68.70;;;;;;5095507;28;19908;-15
2023/01/18 04:21:01;;;;;;;;;;;13.60;67.70;;;;;;5077434;28;19912;-17
2023/01/18 04:23:27;;;;;;;;;;;13.70;67.00;;;;;;5095015;28;19908;-14
2023/01/18 04:25:52;;;;;;;;;;;13.80;66.10;;;;;;5077593;28;19923;-15
2023/01/18 04:28:32;;;;;;;;;;;13.90;65.30;;;;;;5095755;28;19957;-19
2023/01/18 04:30:58;;;;;;;;;;;14.00;64.60;;;;;;5076819;28;20092;-19
2023/01/18 04:33:25;;;;;;;;;;;14.10;63.90;;;;;;5075644;28;20317;-17
2023/01/18 04:35:53;;;;;;;;;;;14.20;63.10;;;;;;5092561;28;19908;-15
2023/01/18 04:38:18;;;;;;;;;;;14.30;62.50;;;;;;5109543;28;19908;-14
2023/01/18 04:40:44;;;;;;;;;;;14.40;62.00;;;;;;5091471;28;19908;-17
2023/01/18 04:43:09;;;;;;;;;;;14.50;61.50;;;;;;5073815;28;20163;-18
2023/01/18 04:45:35;;;;;;;;;;;14.50;61.10;;;;;;5090864;28;19919;-15
2023/01/18 04:48:01;;;;;;;;;;;14.60;60.90;;;;;;5090977;28;20053;-15
2023/01/18 04:50:26;;;;;;;;;;;14.60;60.70;;;;;;5092216;28;19916;-18
2023/01/18 04:52:56;;;;;;;;;;;14.60;60.40;;;;;;5075037;28;19966;-14
2023/01/18 04:55:21;;;;;;;;;;;14.70;60.30;;;;;;5108889;28;19922;-17
2023/01/18 04:57:52;;;;;;;;;;;14.70;60.00;;;;;;5092609;28;19908;-14
2023/01/18 05:00:18;;;;;;;;;;;14.80;59.80;;;;;;5074937;28;19908;-17
2023/01/18 05:02:43;;;;;;;;;;;14.80;59.70;;;;;;5092656;28;19919;-16
2023/01/18 05:05:09;;;;;;;;;;;14.80;59.50;;;;;;5095083;28;19931;-13
2023/01/18 05:07:34;;;;;;;;;;;14.90;59.40;;;;;;5075899;28;19915;-15
2023/01/18 05:10:00;;;;;;;;;;;14.90;59.70;;;;;;5094406;28;20242;-16
2023/01/18 05:12:26;;;;;;;;;;;14.90;59.60;;;;;;5094510;28;20261;-16
2023/01/18 05:14:52;;;;;;;;;;;14.90;59.10;;;;;;5109688;28;19908;-16
2023/01/18 05:17:17;;;;;;;;;;;14.90;59.00;;;;;;5076726;28;19935;-18
2023/01/18 05:19:43;;;;;;;;;;;15.00;59.00;;;;;;5093502;28;19938;-16
2023/01/18 05:22:08;;;;;;;;;;;15.00;59.00;;;;;;5072752;28;20054;-16
2023/01/18 05:24:35;;;;;;;;;;;15.00;58.80;;;;;;5072192;28;19915;-18
2023/01/18 05:27:00;;;;;;;;;;;15.00;58.80;;;;;;5073028;28;20303;-15
2023/01/18 05:29:29;;;;;;;;;;;15.10;58.70;;;;;;5071708;28;19943;-16
2023/01/18 05:31:54;;;;;;;;;;;15.10;58.60;;;;;;5071486;28;19915;-16
2023/01/18 05:34:20;;;;;;;;;;;15.10;58.50;;;;;;5069922;28;20085;-15
2023/01/18 05:36:49;;;;;;;;;;;15.10;58.40;;;;;;5070497;28;19998;-15
2023/01/18 05:39:14;;;;;;;;;;;15.10;58.40;;;;;;5090700;28;20077;-14
2023/01/18 05:41:40;;;;;;;;;;;15.20;58.40;;;;;;5090675;28;20026;-18
2023/01/18 05:44:05;;;;;;;;;;;15.10;58.30;;;;;;5071300;28;19909;-16
2023/01/18 05:46:38;;;;;;;;;;;15.20;58.30;;;;;;5089945;28;19908;-16
2023/01/18 05:49:04;;;;;;;;;;;15.20;58.30;;;;;;5079615;28;19915;-15
2023/01/18 05:51:29;;;;;;;;;;;15.20;58.10;;;;;;5097331;28;19912;-17
2023/01/18 05:53:55;;;;;;;;;;;15.30;58.10;;;;;;5074724;28;19919;-15
2023/01/18 05:56:20;;;;;;;;;;;15.30;58.00;;;;;;5090142;28;19924;-16
2023/01/18 05:58:46;;;;;;;;;;;15.30;58.00;;;;;;5087975;28;20034;-15
2023/01/18 06:01:12;;;;;;;;;;;15.30;57.80;;;;;;5086074;22;19934;-14
2023/01/18 06:03:38;;;;;;;;;;;15.30;57.80;;;;;;5093553;28;20044;-17
2023/01/18 06:06:04;;;;;;;;;;;15.40;57.70;;;;;;5111167;28;19912;-19
2023/01/18 06:08:30;;;;;;;;;;;15.40;57.60;;;;;;5110406;28;19907;-17
2023/01/18 06:10:56;;;;;;;;;;;15.40;57.60;;;;;;5095294;28;20437;-15
2023/01/18 06:13:23;;;;;;;;;;;15.50;57.60;;;;;;5113081;28;20280;-18
2023/01/18 06:15:48;;;;;;;;;;;15.50;57.60;;;;;;5112370;28;19919;-17
2023/01/18 06:18:14;;;;;;;;;;;15.50;57.90;;;;;;5096338;28;19907;-16
2023/01/18 06:20:40;;;;;;;;;;;15.50;57.50;;;;;;5112479;28;19907;-16
2023/01/18 06:23:05;;;;;;;;;;;15.60;57.50;;;;;;5112813;28;19912;-17
2023/01/18 06:25:31;;;;;;;;;;;15.60;57.50;;;;;;5116064;28;19907;-18
2023/01/18 06:27:58;;;;;;;;;;;15.60;57.40;;;;;;5114969;28;19919;-15
2023/01/18 06:30:24;;;;;;;;;;;15.60;57.40;;;;;;5112500;28;19971;-18
2023/01/18 06:32:49;;;;;;;;;;;15.60;57.70;;;;;;5093446;28;19916;-15
2023/01/18 06:35:15;;;;;;;;;;;15.60;57.30;;;;;;5112612;28;20196;-14
2023/01/18 06:37:41;;;;;;;;;;;15.60;57.30;;;;;;5094675;28;20214;-18
2023/01/18 06:40:08;;;;;;;;;;;15.70;57.40;;;;;;5093891;28;20069;-17
2023/01/18 06:42:33;;;;;;;;;;;15.70;57.50;;;;;;5112162;28;19911;-16
2023/01/18 06:44:59;;;;;;;;;;;15.70;57.40;;;;;;5111815;28;20087;-23
2023/01/18 06:47:26;;;;;;;;;;;15.70;57.50;;;;;;5092926;28;19908;-16
2023/01/18 06:49:51;;;;;;;;;;;15.70;57.60;;;;;;5112990;28;19916;-18
2023/01/18 06:52:17;;;;;;;;;;;15.70;57.60;;;;;;5110071;28;19908;-15
2023/01/18 06:54:43;;;;;;;;;;;15.70;57.60;;;;;;5092425;28;19907;-18
2023/01/18 06:57:09;;;;;;;;;;;15.60;57.60;;;;;;5111158;28;20271;-17
2023/01/18 06:59:35;;;;;;;;;;;15.60;57.60;;;;;;5090004;28;20266;-18
2023/01/18 07:02:00;;;;;;;;;;;15.70;57.60;;;;;;5082263;22;20244;-17
2023/01/18 07:04:26;;;;;;;;;;;15.60;57.50;;;;;;5068485;28;19989;-16
2023/01/18 07:06:52;;;;;;;;;;;15.70;57.60;;;;;;5088032;28;19948;-16
2023/01/18 07:09:17;;;;;;;;;;;15.70;58.00;;;;;;5068476;28;19908;-14
2023/01/18 07:11:44;;;;;;;;;;;15.70;57.60;;;;;;5090308;28;19908;-18
2023/01/18 07:14:10;;;;;;;;;;;15.70;57.60;;;;;;5072409;28;19908;-17
2023/01/18 07:16:36;;;;;;;;;;;15.70;57.50;;;;;;5070417;28;19916;-19
2023/01/18 07:19:02;;;;;;;;;;;15.70;57.50;;;;;;5070872;28;19951;-17
2023/01/18 07:21:28;;;;;;;;;;;15.70;57.50;;;;;;5071119;28;19923;-15
2023/01/18 07:23:54;;;;;;;;;;;15.70;57.50;;;;;;5089816;28;19908;-15
2023/01/18 07:26:20;;;;;;;;;;;15.70;57.40;;;;;;5105269;28;20151;-17
2023/01/18 07:28:46;;;;;;;;;;;15.70;57.40;;;;;;5070935;28;20203;-18
2023/01/18 07:31:12;;;;;;;;;;;15.70;57.40;;;;;;5088461;28;20001;-15
2023/01/18 07:33:38;;;;;;;;;;;15.80;57.40;;;;;;5069278;28;19908;-18
2023/01/18 07:36:05;;;;;;;;;;;15.80;57.40;;;;;;5103377;28;19918;-16
2023/01/18 07:38:31;;;;;;;;;;;15.80;57.40;;;;;;5088887;28;19908;-18
2023/01/18 07:40:58;;;;;;;;;;;15.80;57.30;;;;;;5087810;28;20242;-16
2023/01/18 07:43:24;;;;;;;;;;;15.80;57.30;;;;;;5102409;28;19917;-14
2023/01/18 07:45:53;;;;;;;;;;;15.80;57.30;;;;;;5070325;28;19967;-17
2023/01/18 07:48:19;;;;;;;;;;;15.80;57.20;;;;;;5088035;28;19973;-16
2023/01/18 07:50:51;;;;;;;;;;;15.90;57.10;;;;;;5088741;28;19916;-16
2023/01/18 07:53:17;;;;;;;;;;;15.90;57.10;;;;;;5088260;28;19950;-18
2023/01/18 07:55:43;;;;;;;;;;;15.90;57.00;;;;;;5070936;28;19908;-15
2023/01/18 07:58:09;;;;;;;;;;;15.90;56.90;;;;;;5088353;28;20033;-14
2023/01/18 08:00:35;;;;;;;;;;;15.90;56.70;;;;;;5105670;28;19915;-17
2023/01/18 08:03:00;;;;;;;;;;;16.00;56.70;;;;;;5105338;28;19919;-17
2023/01/18 08:05:28;;;;;;;;;;;16.00;56.60;;;;;;5088209;28;19916;-15
2023/01/18 08:07:54;;;;;;;;;;;16.00;56.50;;;;;;5089073;28;19908;-16
2023/01/18 08:10:20;;;;;;;;;;;16.00;56.40;;;;;;5089214;28;19914;-15
2023/01/18 08:12:46;;;;;;;;;;;16.10;56.40;;;;;;5106267;28;19989;-16
2023/01/18 08:15:12;;;;;;;;;;;16.10;56.30;;;;;;5093202;28;19908;-15
2023/01/18 08:17:37;;;;;;;;;;;16.10;56.20;;;;;;5106228;28;19916;-16
2023/01/18 08:20:04;;;;;;;;;;;16.10;56.20;;;;;;5089645;28;20082;-16
2023/01/18 08:22:30;;;;;;;;;;;16.20;56.10;;;;;;5102667;28;19912;-16
2023/01/18 08:24:56;;;;;;;;;;;16.20;55.90;;;;;;5068725;28;19919;-21
2023/01/18 08:27:21;;;;;;;;;;;16.20;55.90;;;;;;5087162;28;20173;-15
2023/01/18 08:29:47;;;;;;;;;;;16.20;55.70;;;;;;5086168;28;19951;-17
2023/01/18 08:32:13;;;;;;;;;;;16.20;55.60;;;;;;5086455;28;19919;-17
2023/01/18 08:34:38;;;;;;;;;;;16.30;55.60;;;;;;5088244;28;19908;-17
2023/01/18 08:37:04;;;;;;;;;;;16.30;55.50;;;;;;5087491;28;19911;-15
2023/01/18 08:39:30;;;;;;;;;;;16.30;55.40;;;;;;5071804;28;20177;-17
2023/01/18 08:41:56;;;;;;;;;;;16.30;55.30;;;;;;5104765;28;20127;-15
2023/01/18 08:44:22;;;;;;;;;;;16.30;55.30;;;;;;5088995;28;19908;-18
2023/01/18 08:46:48;;;;;;;;;;;16.30;55.20;;;;;;5091344;28;19920;-13
2023/01/18 08:49:15;;;;;;;;;;;16.40;55.20;;;;;;5088479;28;19939;-17
2023/01/18 08:51:40;;;;;;;;;;;16.40;55.10;;;;;;5088561;28;20285;-16
2023/01/18 08:54:06;;;;;;;;;;;16.40;54.90;;;;;;5088335;28;19919;-15
2023/01/18 08:56:32;;;;;;;;;;;16.50;54.70;;;;;;5088325;28;19931;-16
2023/01/18 08:58:58;;;;;;;;;;;16.60;54.70;;;;;;5085418;28;19958;-18
2023/01/18 09:01:24;;;;;;;;;;;16.80;54.50;;;;;;5066651;28;19916;-17
2023/01/18 09:03:53;;;;;;;;;;;17.00;54.10;;;;;;5100727;28;19908;-18
2023/01/18 09:06:18;;;;;;;;;;;17.00;53.90;;;;;;5086267;28;19912;-17
2023/01/18 09:08:46;;;;;;;;;;;17.00;53.70;;;;;;5085419;28;19919;-15
2023/01/18 09:11:11;;;;;;;;;;;17.20;53.70;;;;;;5087058;28;19908;-17
2023/01/18 09:13:40;;;;;;;;;;;17.40;53.30;;;;;;5071010;28;20164;-15
2023/01/18 09:16:06;;;;;;;;;;;17.60;53.00;;;;;;5103051;28;19908;-19
2023/01/18 09:18:32;;;;;;;;;;;18.10;52.40;;;;;;5102245;28;19908;-17
2023/01/18 09:20:58;;;;;;;;;;;18.40;51.70;;;;;;5088068;28;19973;-17
2023/01/18 09:23:24;;;;;;;;;;;18.40;51.40;;;;;;5088157;28;19915;-14
2023/01/18 09:26:06;;;;;;;;;;;18.30;51.30;;;;;;5086720;28;19919;-18
2023/01/18 09:28:32;;;;;;;;;;;18.10;51.40;;;;;;5088106;28;19958;-20
2023/01/18 09:30:58;;;;;;;;;;;17.90;51.70;;;;;;5104360;28;19908;-17
2023/01/18 09:33:24;;;;;;;;;;;17.70;51.90;;;;;;5090150;28;20474;-19
2023/01/18 09:35:49;;;;;;;;;;;17.60;52.10;;;;;;5089063;28;19916;-17
2023/01/18 09:38:15;;;;;;;;;;;17.60;52.20;;;;;;5090207;28;19912;-16
2023/01/18 09:40:42;;;;;;;;;;;17.50;52.20;;;;;;5105229;28;19958;-17
2023/01/18 09:43:23;;;;;;;;;;;17.50;52.20;;;;;;5106019;28;19965;-18
2023/01/18 09:45:49;;;;;;;;;;;17.50;52.20;;;;;;5110192;28;20139;-17
2023/01/18 09:48:36;;;;;;;;;;;17.50;52.10;;;;;;5106990;28;19994;-17
2023/01/18 09:51:19;;;;;;;;;;;17.50;52.10;;;;;;5091624;28;20384;-17
2023/01/18 09:54:01;;;;;;;;;;;17.50;52.10;;;;;;5092160;28;20006;-18
2023/01/18 09:56:28;;;;;;;;;;;17.50;52.10;;;;;;5091813;28;19908;-18
2023/01/18 09:59:03;;;;;;;;;;;17.50;52.20;;;;;;5073535;28;19908;-16
2023/01/18 10:01:30;;;;;;;;;;;17.50;52.30;;;;;;5090124;28;19923;-16
2023/01/18 10:03:59;;;;;;;;;;;17.50;52.30;;;;;;5111146;28;19916;-16
2023/01/18 10:06:27;;;;;;;;;;;17.50;52.30;;;;;;5094191;28;19919;-17
2023/01/18 10:08:59;;;;;;;;;;;17.50;52.30;;;;;;5093580;28;19948;-16
2023/01/18 10:11:30;;;;;;;;;;;17.50;52.30;;;;;;5093174;28;20081;-16
2023/01/18 10:14:04;;;;;;;;;;;17.50;52.30;;;;;;5072205;28;19912;-15
2023/01/18 10:16:34;;;;;;;;;;;17.50;52.30;;;;;;5070690;28;19973;-16
2023/01/18 10:19:00;;;;;;;;;;;17.50;52.30;;;;;;5090035;28;19915;-16
2023/01/18 10:21:46;;;;;;;;;;;17.60;52.40;;;;;;5104659;28;19967;-18
2023/01/18 10:24:14;;;;;;;;;;;17.60;52.30;;;;;;5069275;28;19919;-17
2023/01/18 10:26:40;;;;;;;;;;;17.70;52.30;;;;;;5087817;28;20114;-15
2023/01/18 10:29:14;;;;;;;;;;;17.70;52.20;;;;;;5069410;28;20204;-15
2023/01/18 10:31:47;;;;;;;;;;;17.70;52.30;;;;;;5087792;28;19908;-17
2023/01/18 10:34:17;;;;;;;;;;;17.60;52.20;;;;;;5103599;28;19948;-18
2023/01/18 10:36:46;;;;;;;;;;;17.60;52.30;;;;;;5105344;28;19908;-17
2023/01/18 10:39:26;;;;;;;;;;;17.60;52.30;;;;;;5090768;28;20021;-18
2023/01/18 10:41:53;;;;;;;;;;;17.60;52.30;;;;;;5075728;28;19912;-15
2023/01/18 10:44:19;;;;;;;;;;;17.60;52.30;;;;;;5092705;28;20337;-16
2023/01/18 10:46:44;;;;;;;;;;;17.70;52.30;;;;;;5071538;28;20269;-19
2023/01/18 10:49:29;;;;;;;;;;;17.70;52.30;;;;;;5091233;28;20230;-17
2023/01/18 10:51:55;;;;;;;;;;;17.70;52.30;;;;;;5090418;28;19908;-17
2023/01/18 10:54:22;;;;;;;;;;;17.70;52.20;;;;;;5095697;28;20250;-19
2023/01/18 10:56:48;;;;;;;;;;;17.70;52.30;;;;;;5099037;28;20283;-15
2023/01/18 10:59:25;;;;;;;;;;;17.70;52.30;;;;;;5076492;28;19916;-16
2023/01/18 11:01:53;;;;;;;;;;;17.60;52.40;;;;;;5089854;28;19983;-17
2023/01/18 11:04:26;;;;;;;;;;;17.60;52.40;;;;;;5103974;28;19908;-15
2023/01/18 11:06:55;;;;;;;;;;;17.60;52.50;;;;;;5102695;28;19908;-18
2023/01/18 11:09:40;;;;;;;;;;;17.60;52.50;;;;;;5104528;28;19916;-16
2023/01/18 11:12:33;;;;;;;;;;;17.60;52.60;;;;;;5087647;28;20611;-18
2023/01/18 11:15:14;;;;;;;;;;;17.60;52.60;;;;;;5086938;28;20291;-18
2023/01/18 11:17:41;;;;;;;;;;;17.60;52.60;;;;;;5088322;28;20076;-17
2023/01/18 11:20:13;;;;;;;;;;;17.60;52.60;;;;;;5085769;28;19908;-18
2023/01/18 11:22:52;;;;;;;;;;;17.60;52.70;;;;;;5089133;28;19919;-18
2023/01/18 11:25:17;;;;;;;;;;;17.50;52.80;;;;;;5088233;28;20150;-18
2023/01/18 11:27:44;;;;;;;;;;;17.50;52.80;;;;;;5089777;28;19908;-18
2023/01/18 11:30:20;;;;;;;;;;;17.50;52.80;;;;;;5090323;28;19908;-17
2023/01/18 11:32:46;;;;;;;;;;;17.40;52.80;;;;;;5088169;28;20088;-19
2023/01/18 11:35:20;;;;;;;;;;;17.40;52.80;;;;;;5090571;28;19958;-17
2023/01/18 11:37:46;;;;;;;;;;;17.40;52.80;;;;;;5093250;28;20202;-18
2023/01/18 11:40:17;;;;;;;;;;;17.40;52.70;;;;;;5095788;28;20364;-16
2023/01/18 11:42:43;;;;;;;;;;;17.40;52.80;;;;;;5098099;28;19919;-17
2023/01/18 11:45:18;;;;;;;;;;;17.40;52.70;;;;;;5097682;28;20270;-17
2023/01/18 11:48:01;;;;;;;;;;;17.40;52.60;;;;;;5096980;28;19919;-17
2023/01/18 11:50:29;;;;;;;;;;;17.40;52.60;;;;;;5096235;28;19944;-16
2023/01/18 11:53:08;;;;;;;;;;;17.50;52.60;;;;;;5097708;28;19908;-16
2023/01/18 11:55:36;;;;;;;;;;;17.50;52.50;;;;;;5092974;28;19908;-17
2023/01/18 11:58:05;;;;;;;;;;;17.50;52.60;;;;;;5113821;28;20273;-16
2023/01/18 12:00:46;;;;;;;;;;;17.50;52.70;;;;;;5080382;28;19934;-17
2023/01/18 12:03:24;;;;;;;;;;;17.50;52.70;;;;;;5092938;28;19963;-18
2023/01/18 12:06:02;;;;;;;;;;;17.50;52.70;;;;;;5070087;28;19916;-15
2023/01/18 12:08:40;;;;;;;;;;;17.50;52.80;;;;;;5087962;28;19916;-18
2023/01/18 12:11:24;;;;;;;;;;;17.40;52.90;;;;;;5069356;28;20436;-17
2023/01/18 12:14:02;;;;;;;;;;;17.40;53.00;;;;;;5086551;28;19940;-17
2023/01/18 12:16:46;;;;;;;;;;;17.40;53.00;;;;;;5057645;28;20319;-18
2023/01/18 12:19:30;;;;;;;;;;;17.40;53.10;;;;;;5058220;28;20019;-17
2023/01/18 12:21:56;;;;;;;;;;;17.40;53.30;;;;;;5047155;28;19924;-17
2023/01/18 12:24:27;;;;;;;;;;;17.30;53.30;;;;;;5065665;28;19908;-18
2023/01/18 12:27:18;;;;;;;;;;;17.30;53.40;;;;;;5103860;28;19930;-17
2023/01/18 12:29:44;;;;;;;;;;;17.30;53.50;;;;;;5040581;28;20186;-15
2023/01/18 12:32:09;;;;;;;;;;;17.30;53.60;;;;;;5066890;28;19926;-15
2023/01/18 12:34:55;;;;;;;;;;;17.30;53.70;;;;;;5086610;28;20192;-17
2023/01/18 12:37:40;;;;;;;;;;;17.30;53.80;;;;;;5084878;28;19908;-17
2023/01/18 12:40:24;;;;;;;;;;;17.30;53.90;;;;;;5085040;28;19916;-18
2023/01/18 12:43:13;;;;;;;;;;;17.30;54.00;;;;;;5096729;28;20096;-14
2023/01/18 12:45:46;;;;;;;;;;;17.30;54.10;;;;;;5087297;28;19923;-19
2023/01/18 12:48:18;;;;;;;;;;;17.20;54.10;;;;;;5086179;28;19918;-18
2023/01/18 12:50:46;;;;;;;;;;;17.20;54.20;;;;;;5061620;28;19968;-17
2023/01/18 12:53:19;;;;;;;;;;;17.20;54.30;;;;;;5101587;28;19953;-15
2023/01/18 12:55:54;;;;;;;;;;;17.20;54.40;;;;;;5048851;28;20282;-17
2023/01/18 12:58:23;;;;;;;;;;;17.20;54.40;;;;;;5084328;28;19908;-18
2023/01/18 13:00:55;;;;;;;;;;;17.20;54.40;;;;;;5048525;28;20163;-16
2023/01/18 13:03:23;;;;;;;;;;;17.20;54.60;;;;;;5066131;28;19913;-16
2023/01/18 13:05:54;;;;;;;;;;;17.20;54.70;;;;;;5051010;28;20289;-16
2023/01/18 13:08:22;;;;;;;;;;;17.20;54.70;;;;;;5049352;28;20004;-17
2023/01/18 13:10:48;;;;;;;;;;;17.10;54.70;;;;;;5098617;28;19918;-16
2023/01/18 13:13:16;;;;;;;;;;;17.10;54.80;;;;;;5088182;28;20060;-17
2023/01/18 13:15:42;;;;;;;;;;;17.10;54.90;;;;;;5067491;28;19908;-16
2023/01/18 13:18:25;;;;;;;;;;;17.10;54.90;;;;;;5086225;28;19908;-19
2023/01/18 13:20:59;;;;;;;;;;;17.00;55.00;;;;;;5087874;28;20182;-16
2023/01/18 13:23:33;;;;;;;;;;;17.00;55.10;;;;;;5093789;28;19959;-17
2023/01/18 13:26:19;;;;;;;;;;;16.90;55.20;;;;;;5077347;28;19919;-18
2023/01/18 13:29:18;;;;;;;;;;;16.90;55.40;;;;;;5094463;28;19912;-15
2023/01/18 13:31:44;;;;;;;;;;;16.80;55.60;;;;;;5093242;28;19912;-17
2023/01/18 13:34:23;;;;;;;;;;;16.80;55.90;;;;;;5093233;28;19952;-16
2023/01/18 13:36:48;;;;;;;;;;;16.70;56.10;;;;;;5077081;28;19919;-17
2023/01/18 13:39:18;;;;;;;;;;;16.70;56.20;;;;;;5092408;28;19908;-18
2023/01/18 13:42:02;;;;;;;;;;;16.70;56.30;;;;;;5067151;28;20076;-19
2023/01/18 13:44:31;;;;;;;;;;;16.80;56.40;;;;;;5085473;28;20204;-18
2023/01/18 13:46:59;;;;;;;;;;;16.70;56.30;;;;;;5067405;28;19916;-16
2023/01/18 13:49:36;;;;;;;;;;;16.70;56.30;;;;;;5083559;28;20047;-15
2023/01/18 13:52:03;;;;;;;;;;;16.70;56.30;;;;;;5085506;28;19916;-17
2023/01/18 13:54:28;;;;;;;;;;;16.80;56.40;;;;;;5087235;28;19981;-15
2023/01/18 13:57:00;;;;;;;;;;;16.70;56.40;;;;;;5067897;28;20274;-16
2023/01/18 13:59:35;;;;;;;;;;;16.70;56.50;;;;;;5087409;28;19908;-18
2023/01/18 14:02:06;;;;;;;;;;;16.70;56.50;;;;;;5087138;28;20031;-18
2023/01/18 14:04:33;;;;;;;;;;;16.70;56.60;;;;;;5088089;28;19909;-19
2023/01/18 14:07:03;;;;;;;;;;;16.60;56.70;;;;;;5087434;28;19973;-15
2023/01/18 14:09:34;;;;;;;;;;;16.60;56.80;;;;;;5084865;28;19943;-18
2023/01/18 14:12:00;;;;;;;;;;;16.60;56.90;;;;;;5085064;28;19930;-16
2023/01/18 14:14:28;;;;;;;;;;;16.60;57.00;;;;;;5086360;28;19908;-17
2023/01/18 14:17:13;;;;;;;;;;;16.60;57.20;;;;;;5101678;28;20315;-17
2023/01/18 14:19:51;;;;;;;;;;;16.60;57.30;;;;;;5085218;28;20063;-15
2023/01/18 14:22:25;;;;;;;;;;;16.60;57.40;;;;;;5048804;28;19993;-17
2023/01/18 14:25:20;;;;;;;;;;;16.60;57.60;;;;;;5065183;28;19915;-17
2023/01/18 14:27:48;;;;;;;;;;;16.50;57.60;;;;;;5084389;28;20296;-18
2023/01/18 14:30:20;;;;;;;;;;;16.50;57.80;;;;;;5085714;28;19908;-17
2023/01/18 14:32:53;;;;;;;;;;;16.50;57.90;;;;;;5104597;28;20015;-18
2023/01/18 14:35:19;;;;;;;;;;;16.50;58.00;;;;;;5070932;28;20071;-18
2023/01/18 14:37:46;;;;;;;;;;;16.50;58.10;;;;;;5104286;28;20042;-18
2023/01/18 14:40:11;;;;;;;;;;;16.50;58.20;;;;;;5103599;28;20035;-17
2023/01/18 14:42:42;;;;;;;;;;;16.50;58.70;;;;;;5069823;28;19987;-17
2023/01/18 14:45:16;;;;;;;;;;;16.50;58.40;;;;;;5087636;28;19916;-15
2023/01/18 14:47:42;;;;;;;;;;;16.40;58.50;;;;;;5085755;28;20050;-16
2023/01/18 14:50:13;;;;;;;;;;;16.50;58.60;;;;;;5098878;28;19908;-17
2023/01/18 14:52:41;;;;;;;;;;;16.40;58.70;;;;;;5100531;28;19908;-16
2023/01/18 14:55:21;;;;;;;;;;;16.40;58.90;;;;;;5118226;28;19915;-17
2023/01/18 14:57:49;;;;;;;;;;;16.40;59.10;;;;;;5098724;28;19908;-18
2023/01/18 15:00:16;;;;;;;;;;;16.40;59.20;;;;;;5087165;28;20271;-18
2023/01/18 15:02:42;;;;;;;;;;;16.40;59.40;;;;;;5104377;28;20295;-15
2023/01/18 15:05:18;;;;;;;;;;;16.30;59.40;;;;;;5108425;28;20333;-18